createdAt,value
2018-10-17T00:02:05.339Z,14.70
2018-10-17T00:04:33.783Z,15.07
2018-10-17T00:07:02.363Z,14.40
2018-10-17T00:09:30.645Z,14.07
2018-10-17T00:11:58.980Z,16.53
2018-10-17T00:14:27.396Z,14.67
2018-10-17T00:16:55.695Z,15.73
2018-10-17T00:19:24.068Z,14.80
2018-10-17T00:21:52.412Z,16.47
2018-10-17T00:24:20.728Z,15.03
2018-10-17T00:26:49.305Z,14.67
2018-10-17T00:29:17.882Z,13.67
2018-10-17T00:31:46.091Z,17.40
2018-10-17T00:34:14.439Z,17.87
2018-10-17T00:36:42.870Z,17.83
2018-10-17T00:39:11.692Z,19.93
2018-10-17T00:41:40.491Z,17.53
2018-10-17T00:44:08.823Z,16.30
2018-10-17T00:46:37.128Z,18.90
2018-10-17T00:49:05.486Z,15.83
2018-10-17T00:51:33.776Z,17.43
2018-10-17T00:54:02.055Z,18.13
2018-10-17T00:56:30.385Z,17.37
2018-10-17T00:59:06.526Z,16.67
2018-10-17T01:01:35.079Z,19.23
2018-10-17T01:04:03.660Z,17.83
2018-10-17T01:06:32.901Z,16.80
2018-10-17T01:09:02.190Z,17.23
2018-10-17T01:11:30.525Z,18.87
2018-10-17T01:13:58.811Z,17.37
2018-10-17T01:16:27.272Z,19.03
2018-10-17T01:18:55.571Z,16.23
2018-10-17T01:21:23.904Z,16.17
2018-10-17T01:23:52.526Z,19.17
2018-10-17T01:26:20.923Z,16.53
2018-10-17T01:28:49.228Z,16.60
2018-10-17T01:31:17.550Z,16.47
2018-10-17T01:33:45.825Z,16.80
2018-10-17T01:36:14.115Z,13.43
2018-10-17T01:38:42.445Z,14.77
2018-10-17T01:43:45.460Z,15.93
2018-10-17T01:46:13.773Z,15.60
2018-10-17T01:48:42.105Z,17.27
2018-10-17T01:51:10.449Z,17.80
2018-10-17T01:53:38.755Z,15.13
2018-10-17T01:56:07.059Z,16.80
2018-10-17T01:58:35.354Z,14.17
2018-10-17T02:01:03.686Z,19.63
2018-10-17T02:03:31.998Z,18.70
2018-10-17T02:06:00.291Z,21.80
2018-10-17T02:08:28.602Z,17.17
2018-10-17T02:10:56.904Z,20.63
2018-10-17T02:13:25.227Z,14.63
2018-10-17T02:15:59.868Z,16.90
2018-10-17T02:18:28.178Z,16.80
2018-10-17T02:20:56.467Z,15.67
2018-10-17T02:23:24.778Z,16.90
2018-10-17T02:25:53.067Z,18.70
2018-10-17T02:28:21.362Z,19.67
2018-10-17T02:30:49.674Z,16.53
2018-10-17T02:33:17.985Z,14.83
2018-10-17T02:35:46.303Z,17.40
2018-10-17T02:38:14.622Z,18.93
2018-10-17T02:40:42.900Z,16.50
2018-10-17T02:43:11.292Z,18.17
2018-10-17T02:45:39.490Z,16.90
2018-10-17T02:48:07.787Z,14.43
2018-10-17T02:50:36.073Z,17.93
2018-10-17T02:53:04.631Z,14.60
2018-10-17T02:55:33.091Z,15.73
2018-10-17T02:58:02.151Z,18.27
2018-10-17T03:00:30.453Z,16.87
2018-10-17T03:02:58.796Z,17.57
2018-10-17T03:05:27.068Z,19.03
2018-10-17T03:07:55.391Z,16.17
2018-10-17T03:10:23.677Z,17.27
2018-10-17T03:12:52.042Z,20.07
2018-10-17T03:15:20.425Z,16.33
2018-10-17T03:17:48.647Z,17.70
2018-10-17T03:20:16.936Z,17.47
2018-10-17T03:22:45.233Z,17.13
2018-10-17T03:25:13.593Z,18.03
2018-10-17T03:27:41.884Z,16.37
2018-10-17T03:30:10.146Z,18.40
2018-10-17T03:32:38.540Z,17.43
2018-10-17T03:35:07.158Z,19.87
2018-10-17T03:37:35.847Z,16.57
2018-10-17T03:40:04.552Z,16.37
2018-10-17T03:42:32.852Z,18.20
2018-10-17T03:45:01.151Z,19.27
2018-10-17T03:47:29.444Z,20.57
2018-10-17T03:49:57.758Z,17.60
2018-10-17T03:52:26.058Z,18.10
2018-10-17T03:54:54.365Z,16.90
2018-10-17T03:57:22.688Z,20.67
2018-10-17T03:59:50.978Z,19.70
2018-10-17T04:02:19.284Z,19.77
2018-10-17T04:04:47.612Z,27.37
2018-10-17T04:07:15.946Z,17.87
2018-10-17T04:09:44.224Z,24.13
2018-10-17T04:12:12.526Z,16.17
2018-10-17T04:14:40.879Z,16.73
2018-10-17T04:17:09.341Z,19.83
2018-10-17T04:19:37.830Z,17.77
2018-10-17T04:22:06.138Z,23.97
2018-10-17T04:24:34.452Z,20.23
2018-10-17T04:27:02.749Z,22.67
2018-10-17T04:29:31.051Z,19.70
2018-10-17T04:31:59.344Z,16.73
2018-10-17T04:34:27.665Z,17.60
2018-10-17T04:36:55.954Z,18.90
2018-10-17T04:39:24.259Z,18.30
2018-10-17T04:41:52.715Z,16.70
2018-10-17T04:44:21.033Z,20.33
2018-10-17T04:46:49.338Z,19.17
2018-10-17T04:49:17.754Z,18.33
2018-10-17T04:51:45.943Z,16.90
2018-10-17T04:54:14.268Z,18.77
2018-10-17T04:56:42.596Z,20.80
2018-10-17T04:59:11.001Z,22.53
2018-10-17T05:01:39.201Z,17.50
2018-10-17T05:04:07.663Z,17.07
2018-10-17T05:06:35.985Z,19.37
2018-10-17T05:09:07.318Z,17.33
2018-10-17T05:11:35.667Z,22.13
2018-10-17T05:14:03.983Z,20.10
2018-10-17T05:16:32.271Z,20.47
2018-10-17T05:19:00.579Z,18.80
2018-10-17T05:21:28.955Z,21.70
2018-10-17T05:23:57.275Z,21.43
2018-10-17T05:26:25.571Z,22.80
2018-10-17T05:28:53.918Z,19.53
2018-10-17T05:31:23.282Z,20.47
2018-10-17T05:33:53.292Z,19.97
2018-10-17T05:36:21.606Z,23.90
2018-10-17T05:38:49.910Z,22.17
2018-10-17T05:41:18.296Z,19.40
2018-10-17T05:43:46.702Z,19.97
2018-10-17T05:46:15.041Z,20.80
2018-10-17T05:48:43.347Z,19.17
2018-10-17T05:51:11.716Z,21.43
2018-10-17T05:53:40.056Z,19.73
2018-10-17T05:56:08.419Z,18.57
2018-10-17T05:58:36.727Z,18.43
2018-10-17T06:01:05.668Z,20.90
2018-10-17T06:03:34.281Z,19.07
2018-10-17T06:06:02.715Z,19.20
2018-10-17T06:08:31.073Z,20.57
2018-10-17T06:10:59.457Z,20.67
2018-10-17T06:13:27.765Z,20.53
2018-10-17T06:15:56.149Z,20.17
2018-10-17T06:18:24.452Z,23.30
2018-10-17T06:20:52.809Z,18.97
2018-10-17T06:23:21.350Z,22.10
2018-10-17T06:25:49.823Z,19.70
2018-10-17T06:28:18.171Z,19.10
2018-10-17T06:30:46.625Z,20.10
2018-10-17T06:33:15.039Z,20.03
2018-10-17T06:35:43.371Z,20.57
2018-10-17T06:38:11.704Z,21.67
2018-10-17T06:40:40.042Z,20.57
2018-10-17T06:43:08.479Z,18.47
2018-10-17T06:45:36.789Z,18.10
2018-10-17T06:48:05.624Z,23.87
2018-10-17T06:50:33.955Z,22.40
2018-10-17T06:53:02.322Z,19.87
2018-10-17T06:55:30.622Z,21.93
2018-10-17T06:57:58.936Z,21.57
2018-10-17T07:00:27.284Z,19.33
2018-10-17T07:02:55.611Z,21.13
2018-10-17T07:05:24.121Z,22.23
2018-10-17T07:07:52.433Z,20.70
2018-10-17T07:10:20.792Z,22.43
2018-10-17T07:12:49.140Z,27.00
2018-10-17T07:15:17.546Z,19.13
2018-10-17T07:17:45.800Z,20.70
2018-10-17T07:20:14.126Z,22.07
2018-10-17T07:22:42.492Z,20.73
2018-10-17T07:25:10.868Z,21.63
2018-10-17T07:27:39.151Z,22.23
2018-10-17T07:30:08.549Z,23.77
2018-10-17T07:32:36.904Z,27.73
2018-10-17T07:35:05.815Z,21.93
2018-10-17T07:37:34.124Z,21.73
2018-10-17T07:40:02.437Z,33.10
2018-10-17T07:42:30.749Z,21.37
2018-10-17T07:44:59.083Z,27.27
2018-10-17T07:47:27.415Z,22.93
2018-10-17T07:49:55.769Z,36.60
2018-10-17T07:52:24.106Z,25.13
2018-10-17T07:54:52.544Z,21.17
2018-10-17T07:57:20.995Z,22.23
2018-10-17T07:59:49.319Z,24.67
2018-10-17T08:02:17.655Z,20.10
2018-10-17T08:04:45.968Z,24.07
2018-10-17T08:07:15.066Z,20.87
2018-10-17T08:09:43.369Z,20.77
2018-10-17T08:12:11.783Z,24.63
2018-10-17T08:14:41.829Z,23.73
2018-10-17T08:17:10.852Z,20.77
2018-10-17T08:19:39.307Z,21.83
2018-10-17T08:22:07.680Z,18.93
2018-10-17T08:24:35.978Z,20.43
2018-10-17T08:27:04.303Z,24.30
2018-10-17T08:29:32.634Z,21.17
2018-10-17T08:32:00.961Z,25.77
2018-10-17T08:34:29.258Z,29.23
2018-10-17T08:36:57.956Z,24.57
2018-10-17T08:39:25.990Z,22.27
2018-10-17T08:41:54.335Z,31.90
2018-10-17T08:44:22.649Z,35.93
2018-10-17T08:46:51.039Z,21.87
2018-10-17T08:49:19.360Z,24.70
2018-10-17T08:51:47.684Z,27.37
2018-10-17T08:54:16.024Z,25.30
2018-10-17T08:56:44.335Z,19.60
2018-10-17T08:59:12.819Z,23.43
2018-10-17T09:01:41.173Z,29.80
2018-10-17T09:04:09.496Z,27.97
2018-10-17T09:06:37.857Z,25.03
2018-10-17T09:09:09.524Z,26.10
2018-10-17T09:11:38.223Z,25.43
2018-10-17T09:14:06.544Z,27.93
2018-10-17T09:16:35.002Z,31.13
2018-10-17T09:19:03.228Z,24.83
2018-10-17T09:21:31.767Z,28.17
2018-10-17T09:24:00.569Z,21.77
2018-10-17T09:26:28.869Z,26.60
2018-10-17T09:28:57.195Z,41.83
2018-10-17T09:31:25.772Z,28.33
2018-10-17T09:33:54.083Z,24.93
2018-10-17T09:36:22.730Z,30.10
2018-10-17T09:38:51.019Z,23.43
2018-10-17T09:41:19.361Z,32.63
2018-10-17T09:43:47.644Z,35.57
2018-10-17T09:46:16.130Z,23.60
2018-10-17T09:48:44.376Z,28.60
2018-10-17T09:51:12.818Z,27.40
2018-10-17T09:53:41.142Z,27.43
2018-10-17T09:56:10.474Z,26.63
2018-10-17T09:58:38.770Z,31.70
2018-10-17T10:01:12.459Z,27.00
2018-10-17T10:03:40.752Z,28.30
2018-10-17T10:06:09.201Z,35.90
2018-10-17T10:08:37.463Z,28.57
2018-10-17T10:11:06.488Z,28.23
2018-10-17T10:13:34.763Z,28.17
2018-10-17T10:16:03.154Z,30.60
2018-10-17T10:18:31.442Z,26.10
2018-10-17T10:20:59.788Z,31.37
2018-10-17T10:23:28.112Z,28.60
2018-10-17T10:25:56.659Z,32.70
2018-10-17T10:28:25.006Z,33.83
2018-10-17T10:30:53.276Z,30.43
2018-10-17T10:33:21.604Z,27.23
2018-10-17T10:35:49.918Z,36.53
2018-10-17T10:38:18.341Z,26.80
2018-10-17T10:40:46.720Z,27.93
2018-10-17T10:43:14.996Z,25.63
2018-10-17T10:45:43.344Z,27.03
2018-10-17T10:48:11.775Z,24.37
2018-10-17T10:50:39.997Z,27.27
2018-10-17T10:53:08.528Z,27.53
2018-10-17T10:55:36.816Z,25.87
2018-10-17T10:58:05.180Z,27.73
2018-10-17T11:00:33.446Z,26.10
2018-10-17T11:03:01.840Z,32.30
2018-10-17T11:05:30.204Z,28.17
2018-10-17T11:07:58.444Z,25.10
2018-10-17T11:10:26.738Z,39.33
2018-10-17T11:12:55.099Z,37.23
2018-10-17T11:15:23.428Z,27.03
2018-10-17T11:17:51.787Z,25.63
2018-10-17T11:20:20.128Z,26.23
2018-10-17T11:22:48.485Z,25.63
2018-10-17T11:25:16.819Z,26.43
2018-10-17T11:27:45.476Z,22.80
2018-10-17T11:30:14.009Z,30.03
2018-10-17T11:32:42.327Z,21.67
2018-10-17T11:35:11.346Z,20.80
2018-10-17T11:37:39.691Z,19.87
2018-10-17T11:40:08.416Z,30.23
2018-10-17T11:42:37.164Z,21.03
2018-10-17T11:45:06.119Z,22.70
2018-10-17T11:47:34.785Z,23.27
2018-10-17T11:50:03.279Z,24.17
2018-10-17T11:52:31.858Z,23.07
2018-10-17T11:55:00.187Z,17.47
2018-10-17T11:57:29.110Z,19.87
2018-10-17T11:59:57.449Z,23.17
2018-10-17T12:02:25.775Z,23.43
2018-10-17T12:04:54.230Z,24.20
2018-10-17T12:07:22.440Z,22.77
2018-10-17T12:09:50.731Z,25.97
2018-10-17T12:12:19.187Z,19.17
2018-10-17T12:14:47.513Z,21.50
2018-10-17T12:17:15.852Z,19.80
2018-10-17T12:19:44.239Z,25.77
2018-10-17T12:22:12.554Z,23.80
2018-10-17T12:24:40.927Z,26.20
2018-10-17T12:27:09.326Z,23.77
2018-10-17T12:29:37.603Z,22.60
2018-10-17T12:32:06.216Z,21.17
2018-10-17T12:34:34.542Z,22.13
2018-10-17T12:37:02.908Z,21.27
2018-10-17T12:39:31.331Z,19.83
2018-10-17T12:41:59.597Z,21.57
2018-10-17T12:44:27.951Z,26.00
2018-10-17T12:46:56.365Z,22.33
2018-10-17T12:49:24.735Z,19.80
2018-10-17T12:51:53.150Z,20.97
2018-10-17T12:54:21.533Z,17.00
2018-10-17T12:56:49.901Z,19.50
2018-10-17T12:59:18.292Z,15.73
2018-10-17T13:01:46.570Z,14.13
2018-10-17T13:04:14.949Z,14.00
2018-10-17T13:06:43.322Z,24.33
2018-10-17T13:09:12.605Z,22.10
2018-10-17T13:11:41.064Z,19.43
2018-10-17T13:14:09.652Z,14.17
2018-10-17T13:16:37.953Z,16.13
2018-10-17T13:19:06.379Z,14.03
2018-10-17T13:21:34.632Z,13.00
2018-10-17T13:24:02.954Z,15.17
2018-10-17T13:26:31.274Z,14.73
2018-10-17T13:28:59.611Z,12.33
2018-10-17T13:31:27.940Z,18.20
2018-10-17T13:33:56.339Z,14.47
2018-10-17T13:36:24.652Z,15.47
2018-10-17T13:38:52.978Z,17.73
2018-10-17T13:41:21.290Z,13.73
2018-10-17T13:43:49.749Z,18.30
2018-10-17T13:46:18.154Z,14.90
2018-10-17T13:48:46.585Z,14.70
2018-10-17T13:51:14.986Z,13.00
2018-10-17T13:53:43.297Z,18.63
2018-10-17T13:56:11.606Z,16.57
2018-10-17T13:58:39.946Z,11.80
2018-10-17T14:01:08.543Z,13.73
2018-10-17T14:03:36.920Z,15.10
2018-10-17T14:06:05.778Z,16.30
2018-10-17T14:08:34.041Z,13.00
2018-10-17T14:11:02.370Z,16.00
2018-10-17T14:13:30.684Z,13.07
2018-10-17T14:15:59.035Z,11.73
2018-10-17T14:18:27.430Z,13.80
2018-10-17T14:20:55.780Z,13.03
2018-10-17T14:23:24.104Z,14.10
2018-10-17T14:25:52.381Z,12.77
2018-10-17T14:28:20.767Z,14.90
2018-10-17T14:30:49.097Z,14.20
2018-10-17T14:33:17.569Z,15.43
2018-10-17T14:35:45.845Z,16.00
2018-10-17T14:38:14.189Z,18.93
2018-10-17T14:40:42.533Z,17.70
2018-10-17T14:43:10.887Z,13.40
2018-10-17T14:45:39.213Z,15.97
2018-10-17T14:48:08.056Z,12.17
2018-10-17T14:50:36.448Z,12.20
2018-10-17T14:53:05.008Z,15.47
2018-10-17T14:55:33.304Z,13.30
2018-10-17T14:58:01.664Z,11.97
2018-10-17T15:00:30.048Z,10.50
2018-10-17T15:02:58.404Z,14.00
2018-10-17T15:05:26.733Z,17.93
2018-10-17T15:07:55.071Z,13.13
2018-10-17T15:10:23.428Z,11.37
2018-10-17T15:12:51.771Z,11.97
2018-10-17T15:15:20.207Z,14.40
2018-10-17T15:17:48.448Z,13.77
2018-10-17T15:20:16.765Z,16.70
2018-10-17T15:22:45.055Z,14.17
2018-10-17T15:25:14.113Z,10.93
2018-10-17T15:27:42.414Z,11.43
2018-10-17T15:30:10.832Z,14.60
2018-10-17T15:32:39.080Z,14.67
2018-10-17T15:35:08.171Z,15.30
2018-10-17T15:37:36.487Z,15.13
2018-10-17T15:40:05.373Z,14.37
2018-10-17T15:42:33.677Z,11.57
2018-10-17T15:45:02.060Z,14.37
2018-10-17T15:47:30.417Z,14.53
2018-10-17T15:49:58.746Z,11.77
2018-10-17T15:52:27.040Z,16.97
2018-10-17T15:55:01.833Z,12.53
2018-10-17T15:57:30.186Z,11.90
2018-10-17T15:59:58.550Z,13.43
2018-10-17T16:02:27.122Z,12.93
2018-10-17T16:04:55.730Z,15.30
2018-10-17T16:07:24.033Z,14.90
2018-10-17T16:09:52.354Z,11.77
2018-10-17T16:12:20.726Z,18.97
2018-10-17T16:14:49.107Z,19.77
2018-10-17T16:17:17.447Z,18.97
2018-10-17T16:19:45.755Z,13.47
2018-10-17T16:22:14.163Z,15.53
2018-10-17T16:24:42.495Z,20.00
2018-10-17T16:27:10.823Z,18.07
2018-10-17T16:29:39.161Z,17.37
2018-10-17T16:32:07.929Z,17.57
2018-10-17T16:34:36.230Z,17.40
2018-10-17T16:37:04.897Z,23.10
2018-10-17T16:39:33.216Z,17.70
2018-10-17T16:42:01.582Z,18.27
2018-10-17T16:44:29.961Z,18.30
2018-10-17T16:46:58.259Z,16.60
2018-10-17T16:49:26.588Z,23.53
2018-10-17T16:51:55.019Z,18.73
2018-10-17T16:54:23.352Z,19.77
2018-10-17T16:56:51.708Z,23.60
2018-10-17T16:59:20.031Z,23.73
2018-10-17T17:01:48.391Z,20.37
2018-10-17T17:04:16.708Z,27.80
2018-10-17T17:06:45.059Z,25.93
2018-10-17T17:09:13.495Z,22.50
2018-10-17T17:11:41.968Z,21.80
2018-10-17T17:14:10.300Z,21.13
2018-10-17T17:16:38.599Z,20.57
2018-10-17T17:19:06.936Z,26.87
2018-10-17T17:21:35.291Z,30.30
2018-10-17T17:24:03.675Z,22.77
2018-10-17T17:26:31.971Z,27.43
2018-10-17T17:29:00.346Z,26.60
2018-10-17T17:31:28.639Z,29.37
2018-10-17T17:33:57.170Z,22.40
2018-10-17T17:36:25.534Z,25.80
2018-10-17T17:38:53.839Z,28.17
2018-10-17T17:41:22.379Z,27.03
2018-10-17T17:43:50.740Z,29.40
2018-10-17T17:46:19.119Z,30.03
2018-10-17T17:48:47.456Z,34.80
2018-10-17T17:51:15.995Z,25.87
2018-10-17T17:53:44.361Z,28.17
2018-10-17T17:56:12.699Z,28.03
2018-10-17T17:58:41.202Z,32.90
2018-10-17T18:01:09.415Z,26.20
2018-10-17T18:03:37.757Z,24.90
2018-10-17T18:06:06.059Z,25.57
2018-10-17T18:08:34.448Z,24.77
2018-10-17T18:11:23.022Z,25.60
2018-10-17T18:13:52.129Z,28.17
2018-10-17T18:16:20.704Z,26.20
2018-10-17T18:18:49.031Z,24.50
2018-10-17T18:21:17.365Z,23.30
2018-10-17T18:23:46.064Z,36.33
2018-10-17T18:26:14.537Z,27.00
2018-10-17T18:28:43.407Z,24.07
2018-10-17T18:31:11.868Z,25.33
2018-10-17T18:33:40.211Z,22.63
2018-10-17T18:36:08.511Z,22.73
2018-10-17T18:38:36.884Z,24.20
2018-10-17T18:41:05.219Z,28.97
2018-10-17T18:43:33.532Z,19.30
2018-10-17T18:46:01.873Z,25.20
2018-10-17T18:48:30.236Z,32.10
2018-10-17T18:50:58.626Z,28.87
2018-10-17T18:53:27.761Z,30.40
2018-10-17T18:55:56.079Z,23.47
2018-10-17T18:58:24.412Z,22.10
2018-10-17T19:00:52.753Z,25.67
2018-10-17T19:03:21.203Z,21.90
2018-10-17T19:05:49.537Z,24.83
2018-10-17T19:08:17.884Z,21.00
2018-10-17T19:10:46.181Z,20.30
2018-10-17T19:13:14.478Z,21.90
2018-10-17T19:15:42.877Z,19.33
2018-10-17T19:18:11.154Z,20.83
2018-10-17T19:20:39.565Z,21.90
2018-10-17T19:23:08.005Z,20.33
2018-10-17T19:25:36.353Z,18.73
2018-10-17T19:28:04.775Z,23.10
2018-10-17T19:30:33.302Z,16.27
2018-10-17T19:33:03.144Z,18.37
2018-10-17T19:35:32.783Z,19.43
2018-10-17T19:38:01.222Z,19.43
2018-10-17T19:40:29.609Z,17.70
2018-10-17T19:42:57.936Z,20.83
2018-10-17T19:45:26.284Z,22.50
2018-10-17T19:47:54.654Z,20.30
2018-10-17T19:50:22.935Z,17.37
2018-10-17T19:52:51.268Z,21.60
2018-10-17T19:55:19.597Z,21.43
2018-10-17T19:57:47.902Z,21.10
2018-10-17T20:00:16.235Z,22.57
2018-10-17T20:02:44.564Z,20.47
2018-10-17T20:05:12.999Z,19.07
2018-10-17T20:07:41.457Z,18.50
2018-10-17T20:10:09.770Z,18.47
2018-10-17T20:12:38.112Z,25.33
2018-10-17T20:15:06.909Z,18.13
2018-10-17T20:17:35.176Z,17.80
2018-10-17T20:20:03.547Z,19.17
2018-10-17T20:22:31.898Z,19.97
2018-10-17T20:25:06.670Z,21.40
2018-10-17T20:27:35.085Z,21.53
2018-10-17T20:30:03.427Z,18.87
2018-10-17T20:32:31.720Z,19.90
2018-10-17T20:35:00.088Z,24.03
2018-10-17T20:37:28.388Z,27.23
2018-10-17T20:39:56.785Z,20.83
2018-10-17T20:42:25.206Z,17.17
2018-10-17T20:44:53.489Z,21.93
2018-10-17T20:47:21.805Z,18.33
2018-10-17T20:49:50.103Z,21.30
2018-10-17T20:52:18.521Z,17.43
2018-10-17T20:54:46.828Z,21.20
2018-10-17T20:57:15.177Z,22.93
2018-10-17T20:59:43.530Z,21.40
2018-10-17T21:02:11.941Z,23.03
2018-10-17T21:04:40.258Z,19.73
2018-10-17T21:07:08.593Z,18.30
2018-10-17T21:09:36.914Z,17.87
2018-10-17T21:12:05.290Z,18.30
2018-10-17T21:14:33.612Z,18.47
2018-10-17T21:17:02.008Z,17.07
2018-10-17T21:19:30.394Z,17.23
2018-10-17T21:21:58.828Z,20.00
2018-10-17T21:24:27.157Z,17.90
2018-10-17T21:26:55.528Z,18.07
2018-10-17T21:29:23.792Z,17.27
2018-10-17T21:31:52.489Z,18.53
2018-10-17T21:34:20.759Z,18.67
2018-10-17T21:36:49.084Z,15.53
2018-10-17T21:39:17.431Z,16.57
2018-10-17T21:41:45.720Z,17.37
2018-10-17T21:44:14.182Z,18.37
2018-10-17T21:46:42.400Z,17.40
2018-10-17T21:49:10.883Z,18.17
2018-10-17T21:51:39.743Z,16.63
2018-10-17T21:54:08.269Z,22.63
2018-10-17T21:56:36.917Z,19.23
2018-10-17T21:59:05.905Z,20.47
2018-10-17T22:01:34.283Z,18.57
2018-10-17T22:04:02.613Z,21.93
2018-10-17T22:06:30.926Z,20.83
2018-10-17T22:08:59.303Z,18.93
2018-10-17T22:11:27.644Z,16.57
2018-10-17T22:13:56.027Z,18.13
2018-10-17T22:16:29.835Z,17.40
2018-10-17T22:18:58.273Z,24.90
2018-10-17T22:21:26.666Z,20.23
2018-10-17T22:23:54.962Z,17.27
2018-10-17T22:26:23.279Z,18.33
2018-10-17T22:28:51.684Z,19.83
2018-10-17T22:31:20.024Z,22.77
2018-10-17T22:33:48.392Z,22.70
2018-10-17T22:36:16.699Z,17.57
2018-10-17T22:38:45.032Z,19.07
2018-10-17T22:41:13.382Z,18.70
2018-10-17T22:43:41.716Z,17.50
2018-10-17T22:46:10.048Z,19.93
2018-10-17T22:48:38.357Z,21.67
2018-10-17T22:51:06.802Z,18.40
2018-10-17T22:53:35.104Z,17.60
2018-10-17T22:56:03.479Z,23.80
2018-10-17T22:58:31.818Z,27.43
2018-10-17T23:01:00.507Z,21.93
2018-10-17T23:03:28.857Z,23.83
2018-10-17T23:05:57.204Z,17.73
2018-10-17T23:08:25.515Z,20.40
2018-10-17T23:10:53.873Z,16.90
2018-10-17T23:13:22.202Z,16.43
2018-10-17T23:15:50.600Z,17.13
2018-10-17T23:18:18.877Z,16.60
2018-10-17T23:20:47.202Z,21.00
2018-10-17T23:23:15.522Z,20.63
2018-10-17T23:25:43.851Z,20.97
2018-10-17T23:28:12.152Z,21.30
2018-10-17T23:30:40.545Z,23.17
2018-10-17T23:33:08.827Z,19.87
2018-10-17T23:35:37.200Z,19.30
2018-10-17T23:38:05.643Z,19.43
2018-10-17T23:40:33.879Z,16.47
2018-10-17T23:43:02.339Z,18.93
2018-10-17T23:45:30.653Z,14.90
2018-10-17T23:47:59.118Z,18.43
2018-10-17T23:50:27.451Z,17.50
2018-10-17T23:52:55.772Z,16.77
2018-10-17T23:55:24.120Z,19.63
2018-10-17T23:57:52.458Z,17.63
